Time;durP1;ratioP1;P1;durP2;ratioP2;P2;SDS_P1;SDS_P2;PMS_P1;PMS_P2;Temp;Humidity;BMP_temperature;BMP_pressure;BME280_temperature;BME280_humidity;BME280_pressure;Samples;Min_cycle;Max_cycle;Signal;HPM_P1;HPM_P2
2022/08/01 00:01:17;;;;;;;4.93;4.60;;;20.70;59.30;;;19.99;55.83;97772.47;5061122;28;20997;-73
2022/08/01 00:03:44;;;;;;;5.13;4.70;;;20.70;59.40;;;19.96;56.04;97778.53;5057795;28;20843;-73
2022/08/01 00:06:11;;;;;;;4.97;4.67;;;20.70;59.50;;;19.89;56.16;97775.25;5061222;28;20460;-73
2022/08/01 00:08:39;;;;;;;5.90;5.03;;;20.60;59.50;;;19.87;56.23;97782.94;5055638;28;20456;-74
2022/08/01 00:11:08;;;;;;;5.93;5.40;;;20.60;59.70;;;19.92;56.29;97785.66;5070009;28;20491;-74
2022/08/01 00:13:36;;;;;;;4.97;4.67;;;20.60;59.90;;;19.86;56.50;97786.78;5063119;28;20568;-74
2022/08/01 00:16:04;;;;;;;5.80;5.30;;;20.60;59.90;;;19.81;56.94;97788.44;5053662;28;20461;-74
2022/08/01 00:18:31;;;;;;;5.07;4.70;;;20.60;60.10;;;19.79;56.97;97787.91;5065432;28;20468;-74
2022/08/01 00:20:58;;;;;;;5.83;5.33;;;20.60;60.30;;;19.94;56.70;97788.94;5067659;28;20460;-73
2022/08/01 00:23:26;;;;;;;5.37;4.93;;;20.60;60.30;;;19.78;56.85;97771.75;5065095;28;20474;-74
2022/08/01 00:25:53;;;;;;;5.43;5.03;;;20.60;60.40;;;19.75;57.20;97786.81;5066441;28;20526;-74
2022/08/01 00:28:21;;;;;;;6.03;5.30;;;20.50;60.50;;;19.70;57.40;97784.09;5064557;28;20494;-73
2022/08/01 00:30:49;;;;;;;5.47;5.10;;;20.50;61.10;;;19.74;57.92;97779.69;5068060;28;20477;-74
2022/08/01 00:33:16;;;;;;;5.83;5.43;;;20.50;60.90;;;19.73;57.55;97789.03;5067296;28;20983;-75
2022/08/01 00:35:44;;;;;;;5.63;5.13;;;20.50;61.00;;;19.65;57.88;97784.94;5064190;28;20468;-75
2022/08/01 00:38:11;;;;;;;5.40;5.00;;;20.40;61.10;;;19.57;58.41;97787.44;5061160;28;20517;-75
2022/08/01 00:40:39;;;;;;;6.30;5.80;;;20.40;61.40;;;19.64;58.34;97786.03;5066742;28;20835;-74
2022/08/01 00:43:06;;;;;;;6.47;5.97;;;20.30;61.70;;;19.47;58.96;97791.84;5062772;28;21155;-74
2022/08/01 00:45:35;;;;;;;5.30;5.00;;;20.20;61.80;;;19.44;59.17;97786.94;5059070;28;21053;-74
2022/08/01 00:48:02;;;;;;;5.90;5.30;;;20.20;62.10;;;19.31;59.70;97793.00;5057928;28;20453;-74
2022/08/01 00:50:29;;;;;;;6.17;5.67;;;20.10;62.50;;;19.40;59.29;97789.41;5062228;28;20994;-74
2022/08/01 00:52:59;;;;;;;5.60;5.10;;;20.20;62.90;;;19.20;60.08;97792.22;5060836;28;20479;-73
2022/08/01 00:55:28;;;;;;;5.63;5.13;;;20.00;62.80;;;19.14;60.48;97787.88;5061617;28;20452;-74
2022/08/01 00:57:56;;;;;;;6.00;5.60;;;19.90;63.10;;;19.00;60.96;97798.56;5059707;28;20464;-74
2022/08/01 01:00:24;;;;;;;6.87;6.30;;;19.80;63.50;;;18.90;61.37;97788.41;5060993;28;20471;-73
2022/08/01 01:02:52;;;;;;;6.33;5.87;;;19.60;63.80;;;18.86;61.67;97793.59;5058973;28;20446;-73
2022/08/01 01:05:20;;;;;;;7.10;6.50;;;19.60;64.30;;;18.77;62.09;97798.81;5067885;28;20448;-73
2022/08/01 01:07:55;;;;;;;6.40;6.00;;;19.50;64.70;;;18.64;62.88;97800.19;5063425;28;20505;-72
2022/08/01 01:10:29;;;;;;;6.43;5.83;;;19.40;65.30;;;18.71;62.91;97796.34;5062386;28;20996;-73
2022/08/01 01:13:03;;;;;;;6.80;6.20;;;19.40;65.80;;;18.68;62.95;97801.28;5096511;27;21318;-72
2022/08/01 01:15:39;;;;;;;8.50;7.90;;;19.40;66.10;;;18.63;63.08;97795.81;5059338;28;20478;-72
2022/08/01 01:18:15;;;;;;;6.80;6.30;;;19.40;66.50;;;18.61;63.57;97799.91;5060576;28;20533;-72
2022/08/01 01:20:50;;;;;;;6.40;5.93;;;19.30;66.90;;;18.53;64.15;97804.03;5064978;28;20562;-73
2022/08/01 01:23:38;;;;;;;7.77;7.07;;;19.30;67.70;;;18.48;64.55;97806.75;5062488;28;20854;-73
2022/08/01 01:26:29;;;;;;;7.97;7.27;;;19.30;68.00;;;18.33;65.07;97802.91;5053685;28;20464;-72
2022/08/01 01:29:10;;;;;;;8.37;7.67;;;19.10;68.60;;;18.49;64.41;97805.66;5057488;28;20457;-73
2022/08/01 01:31:46;;;;;;;8.60;7.70;;;19.20;69.10;;;18.47;64.52;97807.84;5060591;28;20548;-74
2022/08/01 01:34:14;;;;;;;8.17;7.37;;;19.20;69.20;;;18.29;64.87;97801.81;5061063;28;20672;-73
2022/08/01 01:36:43;;;;;;;7.70;7.00;;;19.10;69.40;;;18.21;65.01;97805.06;5061966;28;20563;-73
2022/08/01 01:39:11;;;;;;;7.00;6.50;;;19.00;69.80;;;18.23;64.87;97809.19;5059380;28;20467;-72
2022/08/01 01:41:39;;;;;;;7.27;6.67;;;19.00;69.80;;;18.40;64.44;97800.72;5059171;28;21128;-74
2022/08/01 01:44:10;;;;;;;6.97;6.37;;;19.10;70.10;;;18.34;64.33;97799.09;5059065;28;21837;-73
2022/08/01 01:46:38;;;;;;;5.80;5.30;;;19.10;69.80;;;18.30;64.35;97808.09;5058943;28;20930;-74
2022/08/01 01:49:09;;;;;;;5.87;5.37;;;19.10;69.70;;;18.35;64.17;97805.34;5060620;28;20531;-72
2022/08/01 01:51:38;;;;;;;5.47;5.17;;;19.10;69.80;;;18.33;64.17;97807.56;5059803;28;20464;-73
2022/08/01 01:54:06;;;;;;;6.23;5.73;;;19.20;69.80;;;18.35;63.73;97808.09;5060251;28;20445;-72
2022/08/01 01:56:48;;;;;;;6.53;6.03;;;19.20;69.60;;;18.40;63.41;97806.19;5061530;28;20465;-73
2022/08/01 01:59:20;;;;;;;6.43;6.03;;;19.20;69.50;;;18.37;63.56;97811.41;5088728;28;20510;-73
2022/08/01 02:01:50;;;;;;;5.70;4.90;;;19.20;69.50;;;18.38;63.77;97819.31;5065439;28;20465;-72
2022/08/01 02:04:19;;;;;;;6.67;5.63;;;19.20;69.50;;;18.44;63.49;97816.63;5061134;28;20448;-72
2022/08/01 02:06:48;;;;;;;6.00;5.60;;;19.30;69.70;;;18.46;63.40;97817.16;5058157;28;20468;-74
2022/08/01 02:09:18;;;;;;;5.53;5.13;;;19.30;69.60;;;18.52;63.26;97827.00;5059707;28;20471;-74
2022/08/01 02:11:47;;;;;;;6.10;5.60;;;19.30;69.50;;;18.53;63.25;97825.91;5060003;28;20482;-74
2022/08/01 02:14:19;;;;;;;6.47;5.67;;;19.30;69.60;;;18.52;63.31;97832.47;5060785;28;20488;-73
2022/08/01 02:16:50;;;;;;;5.80;5.17;;;19.40;69.60;;;18.77;62.73;97844.53;5061289;28;20462;-72
2022/08/01 02:19:19;;;;;;;5.40;4.90;;;19.50;69.70;;;18.51;62.72;97781.59;5076303;28;20608;-72
2022/08/01 02:21:51;;;;;;;6.03;5.63;;;19.60;69.70;;;18.91;62.43;97845.63;5086191;28;20519;-73
2022/08/01 02:24:26;;;;;;;6.73;6.13;;;19.60;69.50;;;18.59;63.29;97848.63;5088369;28;20454;-74
2022/08/01 02:26:55;;;;;;;6.47;5.97;;;19.50;69.70;;;18.59;63.69;97849.44;5071789;28;20904;-73
2022/08/01 02:29:30;;;;;;;13.43;6.77;;;19.40;70.20;;;18.54;63.69;97843.94;5070428;28;20809;-72
2022/08/01 02:31:59;;;;;;;6.63;6.13;;;19.30;70.20;;;18.50;63.79;97849.16;5064619;28;20467;-73
2022/08/01 02:34:31;;;;;;;6.90;6.40;;;19.30;70.30;;;18.54;64.05;97852.16;5067735;28;20468;-75
2022/08/01 02:37:02;;;;;;;6.40;6.00;;;19.30;70.80;;;18.47;64.04;97837.94;5072953;28;20511;-73
2022/08/01 02:39:31;;;;;;;6.73;6.07;;;19.30;70.80;;;18.32;64.61;97831.34;5067749;28;20503;-76
2022/08/01 02:42:05;;;;;;;6.87;5.90;;;19.20;71.10;;;18.30;65.13;97852.69;5079289;28;20499;-75
2022/08/01 02:44:38;;;;;;;6.07;5.60;;;19.10;71.60;;;18.14;65.31;97859.22;5060881;28;20498;-74
2022/08/01 02:47:07;;;;;;;6.43;5.93;;;18.90;71.60;;;18.14;65.36;97857.28;5063887;28;20465;-76
2022/08/01 02:49:39;;;;;;;8.27;6.00;;;18.90;72.00;;;18.05;65.79;97862.44;5064386;28;20822;-74
2022/08/01 02:52:09;;;;;;;6.60;6.10;;;18.80;72.30;;;17.86;66.38;97853.88;5079234;28;20475;-73
2022/08/01 02:54:38;;;;;;;6.80;5.80;;;18.70;72.80;;;17.80;66.79;97874.06;5062766;28;20483;-71
2022/08/01 02:57:07;;;;;;;5.57;5.17;;;18.60;73.20;;;17.77;66.92;97872.69;5063304;28;20514;-72
2022/08/01 02:59:38;;;;;;;6.17;5.77;;;18.50;73.50;;;17.63;67.16;97861.44;5057964;28;21024;-74
2022/08/01 03:02:07;;;;;;;6.90;6.40;;;18.50;73.80;;;17.60;67.46;97866.59;5075979;28;21036;-72
2022/08/01 03:04:36;;;;;;;6.10;5.70;;;18.40;74.30;;;17.46;67.82;97856.13;5085977;28;20467;-72
2022/08/01 03:07:06;;;;;;;6.93;6.43;;;18.30;74.80;;;17.54;68.23;97866.56;5063119;28;20459;-72
2022/08/01 03:09:38;;;;;;;5.73;5.33;;;18.30;75.30;;;17.45;68.00;97859.97;5065025;28;20555;-72
2022/08/01 03:12:13;;;;;;;6.30;5.70;;;18.30;75.70;;;17.43;68.68;97862.13;5059136;28;20476;-77
2022/08/01 03:14:44;;;;;;;7.27;6.60;;;18.20;76.10;;;17.40;68.48;97868.13;5063296;28;20575;-78
2022/08/01 03:17:12;;;;;;;7.00;6.50;;;18.20;76.40;;;17.31;68.83;97859.63;5064294;28;20458;-74
2022/08/01 03:19:40;;;;;;;7.10;6.50;;;18.10;76.80;;;17.35;69.42;97870.81;5080200;28;20457;-73
2022/08/01 03:22:12;;;;;;;7.00;6.50;;;18.10;77.30;;;17.27;69.37;97864.78;5067122;28;20456;-72
2022/08/01 03:24:41;;;;;;;7.30;6.70;;;18.10;77.40;;;17.22;69.55;97870.22;5066888;28;20474;-74
2022/08/01 03:27:10;;;;;;;7.43;6.83;;;18.00;77.80;;;17.21;69.54;97871.28;5068787;28;20457;-79
2022/08/01 03:29:39;;;;;;;6.83;6.30;;;18.00;78.10;;;17.31;69.78;97872.44;5079334;28;20458;-72
2022/08/01 03:32:11;;;;;;;11.40;7.03;;;18.00;78.40;;;17.45;69.60;97872.81;5070722;28;20966;-78
2022/08/01 03:34:38;;;;;;;7.93;7.33;;;18.10;78.60;;;17.60;68.85;97874.78;5072586;28;20448;-76
2022/08/01 03:37:12;;;;;;;8.50;7.70;;;18.30;78.30;;;17.52;68.92;97887.88;5065731;28;20453;-72
2022/08/01 03:39:47;;;;;;;7.60;7.00;;;18.30;78.30;;;17.31;69.68;97881.47;5068604;28;20514;-77
2022/08/01 03:42:20;;;;;;;7.43;6.83;;;18.10;78.50;;;17.23;70.19;97876.47;5065829;28;20460;-81
2022/08/01 03:44:55;;;;;;;8.00;7.30;;;18.10;78.80;;;17.08;70.36;97880.75;5064517;28;20475;-78
2022/08/01 03:47:31;;;;;;;8.00;7.40;;;18.00;79.10;;;17.04;70.77;97885.09;5065139;28;20892;-74
2022/08/01 03:50:00;;;;;;;6.97;6.47;;;17.90;79.50;;;16.96;71.26;97877.34;5070211;28;20461;-73
2022/08/01 03:52:30;;;;;;;8.83;7.40;;;17.80;79.70;;;16.89;71.80;97885.72;5067131;28;20478;-73
2022/08/01 03:55:07;;;;;;;7.50;7.00;;;17.70;80.40;;;16.90;72.03;97878.38;5068207;28;20570;-73
2022/08/01 03:57:34;;;;;;;6.80;6.40;;;17.70;81.00;;;16.93;72.17;97886.03;5069955;28;20459;-73
2022/08/01 04:00:06;;;;;;;7.33;6.73;;;17.70;81.30;;;17.11;71.61;97890.31;5068332;28;21158;-73
2022/08/01 04:02:35;;;;;;;8.20;7.40;;;17.80;81.20;;;16.99;71.86;97883.13;5068979;28;20444;-73
2022/08/01 04:05:04;;;;;;;8.03;7.43;;;17.80;81.30;;;17.10;71.40;97897.66;5060525;28;20506;-73
2022/08/01 04:07:35;;;;;;;7.10;6.50;;;17.80;81.40;;;17.27;70.91;97900.25;5069411;28;20581;-76
2022/08/01 04:10:03;;;;;;;7.87;6.00;;;18.00;81.10;;;17.36;70.82;97894.28;5062612;28;20456;-74
2022/08/01 04:12:30;;;;;;;6.97;6.37;;;18.10;80.90;;;17.47;70.65;97896.00;5068389;28;20498;-72
2022/08/01 04:14:57;;;;;;;6.70;6.20;;;18.30;80.80;;;17.61;69.97;97899.13;5065303;28;20472;-72
2022/08/01 04:17:24;;;;;;;6.77;6.27;;;18.40;80.40;;;17.75;69.67;97894.00;5064869;28;20452;-72
2022/08/01 04:19:53;;;;;;;6.47;5.83;;;18.50;80.40;;;18.15;67.97;97888.19;5085739;28;20461;-73
2022/08/01 04:22:20;;;;;;;6.90;6.30;;;18.80;79.70;;;18.09;68.42;97901.81;5068962;28;20493;-72
2022/08/01 04:24:53;;;;;;;6.53;6.00;;;18.90;79.60;;;18.27;67.75;97907.88;5068364;28;20468;-73
2022/08/01 04:27:25;;;;;;;8.57;7.80;;;19.00;79.10;;;18.32;67.75;97916.13;5065506;28;20449;-71
2022/08/01 04:29:54;;;;;;;6.10;5.60;;;19.10;79.00;;;18.41;67.54;97908.22;5066585;28;20460;-75
2022/08/01 04:32:24;;;;;;;6.33;5.57;;;19.20;78.90;;;18.48;67.92;97919.72;5076711;28;20484;-75
2022/08/01 04:34:55;;;;;;;5.43;5.03;;;19.30;79.10;;;18.60;67.39;97916.75;5081395;28;20508;-74
2022/08/01 04:37:25;;;;;;;5.70;5.30;;;19.40;78.90;;;18.94;66.38;97916.25;5083396;28;20458;-73
2022/08/01 04:39:55;;;;;;;5.83;5.20;;;19.60;78.50;;;20.02;62.84;97922.72;5075150;28;21356;-78
2022/08/01 04:42:23;;;;;;;7.83;5.80;;;20.70;77.10;;;21.12;58.96;97915.50;5075680;28;20466;-79
2022/08/01 04:44:50;;;;;;;4.27;3.87;;;21.90;74.90;;;21.22;57.80;97917.34;5049070;28;20517;-80
2022/08/01 04:47:18;;;;;;;4.20;3.90;;;22.20;72.30;;;20.75;59.06;97919.59;5064033;28;20483;-79
2022/08/01 04:49:45;;;;;;;5.63;5.10;;;21.80;71.90;;;20.61;59.94;97920.22;5067692;28;20475;-78
2022/08/01 04:52:14;;;;;;;4.67;4.27;;;21.60;72.70;;;20.19;60.70;97930.59;5065672;28;20456;-78
2022/08/01 04:54:41;;;;;;;4.40;4.10;;;21.20;72.80;;;20.01;61.45;97929.28;5066453;28;20476;-77
2022/08/01 04:57:08;;;;;;;4.37;4.07;;;21.00;73.30;;;20.15;61.62;97931.44;5067119;28;20457;-80
2022/08/01 04:59:42;;;;;;;4.10;3.80;;;20.90;74.30;;;19.82;62.97;97932.63;5066607;28;20466;-79
2022/08/01 05:02:12;;;;;;;5.13;3.77;;;20.70;74.40;;;19.75;63.03;97923.84;5079531;28;20548;-78
2022/08/01 05:04:40;;;;;;;3.93;3.53;;;20.60;74.70;;;19.87;63.16;97939.19;5062795;28;20459;-80
2022/08/01 05:07:09;;;;;;;5.03;4.53;;;20.60;75.10;;;20.28;62.27;97935.50;5064020;28;20468;-76
2022/08/01 05:09:39;;;;;;;4.90;4.23;;;20.80;75.20;;;20.21;62.14;97944.84;5067538;28;20460;-79
2022/08/01 05:12:07;;;;;;;4.40;4.10;;;20.90;74.80;;;20.34;61.94;97940.66;5066740;28;20457;-78
2022/08/01 05:14:36;;;;;;;4.47;3.73;;;21.00;74.80;;;20.48;61.73;97946.38;5062693;28;20523;-80
2022/08/01 05:17:07;;;;;;;3.90;3.60;;;21.10;74.60;;;20.62;61.16;97941.09;5060040;28;20463;-78
2022/08/01 05:19:37;;;;;;;3.83;3.53;;;21.30;74.50;;;20.77;60.58;97936.59;5064577;28;20539;-77
2022/08/01 05:22:06;;;;;;;3.00;2.80;;;21.50;74.40;;;20.53;61.68;97937.28;5068454;28;20455;-78
2022/08/01 05:24:38;;;;;;;3.93;3.40;;;21.30;74.30;;;20.65;61.40;97943.25;5064226;28;20459;-81
2022/08/01 05:27:07;;;;;;;3.97;3.47;;;21.50;74.30;;;20.53;61.84;97943.59;5076034;28;20467;-78
2022/08/01 05:29:36;;;;;;;9.30;4.17;;;21.40;74.40;;;20.94;60.93;97944.50;5098874;28;20444;-77
2022/08/01 05:32:03;;;;;;;3.70;3.30;;;21.50;74.40;;;21.06;60.05;97944.13;5042003;28;20462;-78
2022/08/01 05:34:31;;;;;;;6.27;3.60;;;21.80;73.80;;;20.93;60.51;97943.66;5061403;28;20484;-80
2022/08/01 05:36:58;;;;;;;4.00;3.70;;;21.80;73.80;;;21.51;57.86;97878.03;5069275;28;20457;-82
2022/08/01 05:39:25;;;;;;;3.50;3.20;;;22.50;73.20;;;22.23;56.53;97947.97;5062398;28;20460;-72
2022/08/01 05:41:56;;;;;;;3.33;3.07;;;22.90;71.90;;;22.10;57.15;97956.91;5078316;28;20488;-76
2022/08/01 05:44:23;;;;;;;3.60;3.27;;;23.00;71.60;;;21.78;58.11;97943.50;5059943;28;20454;-72
2022/08/01 05:46:50;;;;;;;5.03;3.37;;;22.70;71.70;;;21.90;57.83;97956.03;5061727;28;20711;-72
2022/08/01 05:49:17;;;;;;;3.30;3.00;;;22.70;71.70;;;21.84;58.01;97957.19;5065359;28;20492;-72
2022/08/01 05:51:45;;;;;;;3.60;3.30;;;22.60;71.90;;;21.85;58.16;97953.34;5063169;28;20469;-73
2022/08/01 05:54:12;;;;;;;3.93;3.40;;;22.60;72.00;;;21.93;58.11;97958.22;5062437;28;21190;-81
2022/08/01 05:56:39;;;;;;;5.50;3.57;;;22.70;71.90;;;22.15;57.66;97954.09;5060561;28;21075;-73
2022/08/01 05:59:08;;;;;;;3.60;3.30;;;22.90;71.70;;;22.34;57.02;97954.94;5064160;28;20944;-72
2022/08/01 06:01:35;;;;;;;4.90;2.83;;;23.10;71.50;;;22.56;56.80;97961.03;5077127;28;20465;-74
2022/08/01 06:04:02;;;;;;;4.30;3.50;;;23.30;71.50;;;22.70;56.57;97952.88;5074670;28;20447;-73
2022/08/01 06:06:29;;;;;;;3.50;3.20;;;23.40;71.10;;;23.07;55.24;97953.97;5073964;28;20454;-74
2022/08/01 06:08:57;;;;;;;2.97;2.67;;;23.80;70.50;;;23.21;54.86;97946.59;5065195;28;20461;-74
2022/08/01 06:11:24;;;;;;;2.90;2.70;;;24.00;70.00;;;23.10;55.20;97953.38;5072121;28;21278;-73
2022/08/01 06:13:51;;;;;;;3.60;3.20;;;24.00;69.90;;;22.78;56.26;97963.22;5057526;28;20467;-74
2022/08/01 06:16:20;;;;;;;4.50;3.70;;;23.60;70.30;;;22.64;56.58;97960.41;5067439;28;20449;-74
2022/08/01 06:18:47;;;;;;;3.30;3.10;;;23.50;70.40;;;22.53;57.27;97956.13;5065050;28;20490;-74
2022/08/01 06:21:14;;;;;;;4.07;3.37;;;23.30;70.80;;;22.90;56.39;97960.84;5061202;28;20449;-74
2022/08/01 06:23:42;;;;;;;3.20;3.00;;;23.60;70.80;;;23.04;56.03;97960.09;5079895;28;20517;-74
2022/08/01 06:26:09;;;;;;;3.43;3.13;;;23.70;70.60;;;22.70;57.01;97967.47;5068350;28;20461;-74
2022/08/01 06:28:36;;;;;;;4.13;3.73;;;23.60;70.70;;;22.76;57.24;97971.78;5063956;28;20567;-73
2022/08/01 06:31:04;;;;;;;3.37;2.80;;;23.50;71.20;;;22.54;58.04;97980.63;5061158;28;20510;-72
2022/08/01 06:33:32;;;;;;;3.30;2.60;;;23.30;71.60;;;22.58;58.27;97980.84;5066935;28;20482;-73
2022/08/01 06:36:01;;;;;;;2.87;2.60;;;23.20;71.90;;;22.78;57.78;97974.22;5065878;28;20468;-72
2022/08/01 06:38:28;;;;;;;3.33;3.03;;;23.50;71.90;;;22.63;58.04;97975.28;5060798;28;20445;-72
2022/08/01 06:40:55;;;;;;;3.00;2.73;;;23.30;71.80;;;22.53;58.65;97967.97;5065380;28;20517;-74
2022/08/01 06:43:22;;;;;;;3.07;2.53;;;23.30;72.20;;;22.13;59.42;97959.09;5060973;28;20882;-73
2022/08/01 06:45:49;;;;;;;3.00;2.80;;;23.00;72.40;;;21.94;60.24;97965.34;5058908;28;20459;-73
2022/08/01 06:48:17;;;;;;;3.17;2.83;;;22.80;72.90;;;21.78;61.10;97982.00;5061748;28;20460;-73
2022/08/01 06:50:45;;;;;;;5.83;3.00;;;22.60;73.30;;;21.98;60.70;97974.66;5063092;28;20467;-74
2022/08/01 06:53:13;;;;;;;4.80;2.97;;;22.60;73.60;;;21.97;60.79;97984.00;5077871;28;20811;-74
2022/08/01 06:55:40;;;;;;;3.70;3.00;;;22.70;73.50;;;21.95;61.13;97986.22;5100350;27;20575;-73
2022/08/01 06:58:08;;;;;;;2.70;2.40;;;22.60;73.90;;;21.90;61.13;97989.00;5066210;28;20531;-73
2022/08/01 07:00:35;;;;;;;2.83;2.63;;;22.60;73.80;;;21.94;61.09;97985.41;5063078;28;20456;-73
2022/08/01 07:03:02;;;;;;;3.30;2.90;;;22.60;73.90;;;22.11;60.71;97983.31;5064022;28;20468;-73
2022/08/01 07:05:30;;;;;;;2.83;2.63;;;22.70;74.00;;;22.12;60.38;97991.25;5066839;28;20469;-73
2022/08/01 07:07:59;;;;;;;4.07;2.70;;;22.80;73.70;;;22.10;60.46;97989.94;5064424;28;20469;-73
2022/08/01 07:10:27;;;;;;;5.53;3.50;;;22.80;73.70;;;22.06;60.47;97985.03;5061659;28;20917;-73
2022/08/01 07:12:54;;;;;;;3.53;2.60;;;22.80;73.50;;;22.29;59.87;97990.78;5058562;28;20493;-73
2022/08/01 07:15:26;;;;;;;4.87;2.93;;;22.90;73.40;;;22.40;59.31;97980.47;5069136;28;20981;-74
2022/08/01 07:17:54;;;;;;;3.27;2.40;;;23.00;73.30;;;22.46;59.17;97982.06;5062564;28;20460;-73
2022/08/01 07:20:21;;;;;;;3.20;2.93;;;23.20;73.10;;;22.75;58.21;97986.69;5066034;28;20461;-73
2022/08/01 07:22:48;;;;;;;3.30;3.00;;;23.40;72.70;;;22.84;57.93;97989.59;5065649;28;20467;-74
2022/08/01 07:25:16;;;;;;;3.07;2.80;;;23.40;72.60;;;23.10;57.08;97986.44;5061672;28;20520;-72
2022/08/01 07:27:44;;;;;;;3.10;2.90;;;23.70;72.10;;;23.25;56.76;97987.31;5059259;28;20863;-73
2022/08/01 07:30:12;;;;;;;2.93;2.63;;;23.80;71.90;;;23.46;55.99;97983.16;5068231;28;20457;-73
2022/08/01 07:32:40;;;;;;;3.23;3.03;;;24.10;71.50;;;23.91;55.00;97970.78;5066148;28;20529;-73
2022/08/01 07:35:08;;;;;;;3.97;3.30;;;24.40;71.10;;;23.80;54.51;97941.75;5067635;28;20471;-73
2022/08/01 07:37:35;;;;;;;3.10;2.90;;;24.70;70.70;;;24.40;53.24;97973.97;5064443;28;21008;-73
2022/08/01 07:40:04;;;;;;;3.07;2.80;;;25.00;69.60;;;24.44;52.99;97977.78;5065618;28;20467;-73
2022/08/01 07:42:33;;;;;;;2.47;2.37;;;25.10;69.30;;;24.24;53.49;97972.66;5064218;28;20461;-74
2022/08/01 07:45:00;;;;;;;8.10;3.33;;;25.00;69.20;;;24.13;53.85;97974.81;5078147;28;20958;-74
2022/08/01 07:47:28;;;;;;;3.90;2.50;;;24.80;69.30;;;24.37;53.20;97976.56;5063302;28;20564;-74
2022/08/01 07:50:01;;;;;;;6.00;2.43;;;24.90;69.50;;;24.77;52.29;97973.25;5064818;28;20462;-73
2022/08/01 07:52:29;;;;;;;3.00;2.47;;;25.30;68.80;;;24.90;51.46;97981.50;5061102;28;20941;-73
2022/08/01 07:54:57;;;;;;;2.93;2.50;;;25.50;68.20;;;24.82;51.90;97981.41;5077658;28;21074;-73
2022/08/01 07:57:26;;;;;;;3.70;2.57;;;25.50;68.20;;;24.52;52.62;97984.50;5062523;28;20524;-73
2022/08/01 07:59:55;;;;;;;4.27;2.80;;;25.30;68.30;;;24.13;53.62;97985.84;5062993;28;20555;-72
2022/08/01 08:02:22;;;;;;;5.20;2.50;;;25.00;68.50;;;24.46;53.26;97977.44;5064666;28;20452;-72
2022/08/01 08:04:50;;;;;;;2.60;2.17;;;25.10;68.60;;;24.06;53.57;97983.50;5074588;28;20448;-72
2022/08/01 08:07:17;;;;;;;2.47;2.27;;;25.00;68.30;;;23.80;54.28;97988.63;5074727;28;20454;-71
2022/08/01 08:09:44;;;;;;;2.77;2.10;;;24.70;68.40;;;23.51;54.73;97984.19;5068745;28;20516;-73
2022/08/01 08:12:12;;;;;;;2.50;2.30;;;24.30;68.40;;;23.40;55.23;97983.53;5079882;28;20789;-72
2022/08/01 08:14:39;;;;;;;2.73;2.53;;;24.00;69.00;;;23.48;55.16;97988.34;5063953;28;20616;-73
2022/08/01 08:17:08;;;;;;;3.03;2.83;;;24.10;69.10;;;23.40;55.44;97970.56;5062547;28;20449;-74
2022/08/01 08:19:37;;;;;;;3.30;3.10;;;24.20;69.10;;;23.65;54.79;97984.19;5062675;28;21065;-73
2022/08/01 08:22:04;;;;;;;3.67;3.10;;;24.30;69.00;;;23.29;55.75;97996.66;5053929;28;20441;-74
2022/08/01 08:24:31;;;;;;;3.53;3.23;;;24.10;69.00;;;23.81;54.33;97990.28;5063452;28;20882;-74
2022/08/01 08:27:01;;;;;;;5.23;3.53;;;24.40;69.10;;;23.98;53.80;97993.25;5063765;28;20456;-73
2022/08/01 08:29:32;;;;;;;9.80;3.17;;;24.50;68.70;;;23.91;54.27;97992.84;5067255;28;20502;-73
2022/08/01 08:32:00;;;;;;;3.10;2.80;;;24.50;68.80;;;24.18;53.32;97982.97;5064676;28;20541;-73
2022/08/01 08:34:30;;;;;;;3.73;3.10;;;24.80;69.00;;;24.29;53.21;97981.66;5059157;28;20469;-73
2022/08/01 08:36:59;;;;;;;3.37;3.00;;;24.90;68.10;;;24.21;53.22;97993.44;5064252;28;20466;-73
2022/08/01 08:39:29;;;;;;;3.90;3.13;;;24.90;68.40;;;24.19;53.04;97981.88;5064530;28;20454;-73
2022/08/01 08:41:58;;;;;;;3.53;3.23;;;24.80;68.00;;;24.54;52.48;97981.44;5061404;28;20457;-73
2022/08/01 08:44:25;;;;;;;3.73;3.13;;;25.10;67.80;;;25.29;50.69;97972.88;5058416;28;20458;-73
2022/08/01 08:46:55;;;;;;;2.53;2.33;;;25.70;67.10;;;25.43;48.85;97979.16;5096866;28;20471;-73
2022/08/01 08:49:26;;;;;;;2.50;2.20;;;26.00;65.10;;;24.92;49.28;97985.88;5063340;28;20481;-72
2022/08/01 08:52:00;;;;;;;4.90;2.47;;;25.70;64.60;;;24.18;50.91;97975.53;5061521;28;20568;-73
2022/08/01 08:54:28;;;;;;;2.10;2.00;;;25.10;65.20;;;23.92;52.01;97977.94;5064743;28;20464;-73
2022/08/01 08:56:57;;;;;;;3.57;2.20;;;24.80;65.80;;;23.87;52.18;97975.25;5061542;28;20476;-73
2022/08/01 08:59:25;;;;;;;2.77;2.57;;;24.70;66.30;;;23.94;52.10;97980.38;5060430;28;20463;-74
2022/08/01 09:01:52;;;;;;;2.50;2.23;;;24.70;66.20;;;24.38;51.21;97987.28;5056142;28;20472;-73
2022/08/01 09:04:22;;;;;;;3.10;2.40;;;25.00;66.20;;;24.82;50.30;97993.28;5067935;28;20455;-74
2022/08/01 09:06:49;;;;;;;3.13;2.50;;;25.30;65.50;;;24.40;51.00;97981.47;5064044;28;20458;-74
2022/08/01 09:09:18;;;;;;;2.30;2.10;;;25.20;65.60;;;24.37;50.75;97976.56;5067479;28;20492;-73
2022/08/01 09:11:46;;;;;;;2.20;2.10;;;25.00;65.30;;;24.87;50.00;97984.06;5054297;28;20489;-72
2022/08/01 09:14:22;;;;;;;2.50;2.30;;;25.40;65.20;;;24.97;49.17;97988.56;5041708;28;20504;-73
2022/08/01 09:17:00;;;;;;;2.13;2.03;;;25.50;64.70;;;25.48;48.10;97986.53;5056945;28;20468;-73
2022/08/01 09:19:36;;;;;;;2.37;2.23;;;25.80;64.00;;;25.51;47.26;97991.44;5054200;28;20457;-75
2022/08/01 09:22:07;;;;;;;2.43;2.10;;;26.20;62.70;;;25.23;47.77;97996.22;5089010;28;20442;-76
2022/08/01 09:24:37;;;;;;;3.40;2.20;;;26.00;62.60;;;25.32;48.40;97986.06;5069003;28;20573;-73
2022/08/01 09:27:18;;;;;;;2.70;2.50;;;26.10;63.20;;;25.50;47.39;97989.81;5060565;28;21116;-73
2022/08/01 09:29:45;;;;;;;3.03;2.03;;;26.20;62.70;;;25.47;47.53;97990.38;5063521;28;20945;-73
2022/08/01 09:32:13;;;;;;;1.70;1.60;;;26.20;62.40;;;25.51;47.54;97991.44;5062204;28;20470;-72
2022/08/01 09:34:40;;;;;;;2.77;2.00;;;26.10;62.60;;;25.53;47.81;97991.09;5059975;28;20647;-79
2022/08/01 09:37:09;;;;;;;2.40;2.10;;;26.10;62.60;;;25.12;47.89;97979.06;5064588;28;20467;-84
2022/08/01 09:39:42;;;;;;;1.90;1.80;;;26.00;62.60;;;24.43;49.46;98002.91;5061774;28;20465;-78
2022/08/01 09:42:24;;;;;;;3.17;2.13;;;25.20;62.90;;;24.13;50.51;98007.91;5061436;28;20452;-81
2022/08/01 09:44:52;;;;;;;4.07;2.30;;;24.80;63.80;;;24.10;50.48;97983.72;5062816;28;20459;-80
2022/08/01 09:47:21;;;;;;;4.43;2.53;;;24.80;64.00;;;24.14;50.84;98007.63;5065298;28;20553;-78
2022/08/01 09:49:57;;;;;;;1.90;1.80;;;24.70;64.50;;;24.43;50.37;98009.28;5063299;28;20484;-77
2022/08/01 09:52:27;;;;;;;2.00;1.90;;;24.90;64.60;;;24.42;50.00;98002.13;5066389;28;20493;-78
2022/08/01 09:54:59;;;;;;;2.60;1.70;;;25.00;63.80;;;24.54;49.91;98004.34;5068096;28;20476;-81
2022/08/01 09:57:28;;;;;;;2.73;2.00;;;25.10;63.90;;;24.53;49.94;98001.88;5064678;28;20454;-71
2022/08/01 09:59:57;;;;;;;5.90;2.03;;;25.20;63.70;;;24.04;50.54;97967.25;5064657;28;21119;-74
2022/08/01 10:02:32;;;;;;;2.17;2.00;;;24.90;63.70;;;24.50;50.05;97986.78;5061162;28;20471;-80
2022/08/01 10:05:00;;;;;;;3.23;2.20;;;25.10;64.10;;;24.70;50.12;97984.69;5068413;28;20463;-74
2022/08/01 10:07:27;;;;;;;2.07;1.97;;;25.30;64.20;;;25.26;48.61;97968.78;5063501;28;20460;-78
2022/08/01 10:09:56;;;;;;;1.67;1.47;;;25.70;63.80;;;25.22;47.07;97975.25;5065630;28;20529;-79
2022/08/01 10:12:24;;;;;;;1.93;1.60;;;25.80;61.90;;;25.07;47.95;97981.97;5063704;28;21240;-78
2022/08/01 10:14:55;;;;;;;1.80;1.70;;;25.70;62.20;;;25.12;47.74;97984.59;5063519;28;20514;-80
2022/08/01 10:17:26;;;;;;;1.50;1.40;;;25.70;62.10;;;25.38;46.87;97970.97;5064975;28;20455;-77
2022/08/01 10:19:55;;;;;;;2.40;1.90;;;26.00;62.00;;;25.66;46.02;97970.84;5069590;28;20512;-79
2022/08/01 10:22:26;;;;;;;1.60;1.50;;;26.20;61.00;;;25.60;45.37;97975.69;5069012;28;20462;-78
2022/08/01 10:24:58;;;;;;;1.40;1.30;;;26.10;60.20;;;25.60;44.15;97977.66;5105241;28;20539;-80
2022/08/01 10:27:27;;;;;;;1.87;1.13;;;26.10;59.40;;;25.58;44.06;97964.13;5068839;28;20454;-79
2022/08/01 10:30:03;;;;;;;1.30;1.20;;;26.10;58.80;;;25.85;43.03;97955.97;5055632;28;20458;-77